sensor_id;sensor_type;location;lat;lon;timestamp;P1;durP1;ratioP1;P2;durP2;ratioP2
17725;SDS011;8983;53.156;17.960;2023-07-16T00:02:11;6.95;;;5.60;;
17725;SDS011;8983;53.156;17.960;2023-07-16T00:04:39;8.85;;;6.45;;
17725;SDS011;8983;53.156;17.960;2023-07-16T00:07:08;9.30;;;5.88;;
17725;SDS011;8983;53.156;17.960;2023-07-16T00:09:38;6.70;;;5.88;;
17725;SDS011;8983;53.156;17.960;2023-07-16T00:12:06;8.68;;;6.28;;
17725;SDS011;8983;53.156;17.960;2023-07-16T00:14:35;8.38;;;5.88;;
17725;SDS011;8983;53.156;17.960;2023-07-16T00:17:03;8.32;;;6.50;;
17725;SDS011;8983;53.156;17.960;2023-07-16T00:19:31;7.00;;;6.07;;
17725;SDS011;8983;53.156;17.960;2023-07-16T00:21:59;10.77;;;6.70;;
17725;SDS011;8983;53.156;17.960;2023-07-16T00:24:27;8.63;;;6.22;;
17725;SDS011;8983;53.156;17.960;2023-07-16T00:26:57;7.70;;;6.15;;
17725;SDS011;8983;53.156;17.960;2023-07-16T00:29:25;8.15;;;6.55;;
17725;SDS011;8983;53.156;17.960;2023-07-16T00:31:53;10.15;;;6.10;;
17725;SDS011;8983;53.156;17.960;2023-07-16T00:34:21;7.57;;;6.20;;
17725;SDS011;8983;53.156;17.960;2023-07-16T00:36:50;7.45;;;5.88;;
17725;SDS011;8983;53.156;17.960;2023-07-16T00:39:18;8.52;;;6.00;;
17725;SDS011;8983;53.156;17.960;2023-07-16T00:41:46;7.53;;;5.55;;
17725;SDS011;8983;53.156;17.960;2023-07-16T00:44:15;8.32;;;5.95;;
17725;SDS011;8983;53.156;17.960;2023-07-16T00:46:43;8.27;;;6.05;;
17725;SDS011;8983;53.156;17.960;2023-07-16T00:49:12;11.63;;;6.25;;
17725;SDS011;8983;53.156;17.960;2023-07-16T00:51:40;6.78;;;5.50;;
17725;SDS011;8983;53.156;17.960;2023-07-16T00:54:09;6.25;;;5.63;;
17725;SDS011;8983;53.156;17.960;2023-07-16T00:56:38;7.10;;;5.70;;
17725;SDS011;8983;53.156;17.960;2023-07-16T00:59:06;6.90;;;5.68;;
17725;SDS011;8983;53.156;17.960;2023-07-16T01:01:36;8.32;;;5.45;;
17725;SDS011;8983;53.156;17.960;2023-07-16T01:04:06;8.77;;;5.97;;
17725;SDS011;8983;53.156;17.960;2023-07-16T01:06:35;8.80;;;5.18;;
17725;SDS011;8983;53.156;17.960;2023-07-16T01:09:06;8.13;;;5.95;;
17725;SDS011;8983;53.156;17.960;2023-07-16T01:11:35;9.38;;;5.65;;
17725;SDS011;8983;53.156;17.960;2023-07-16T01:14:04;6.40;;;5.75;;
17725;SDS011;8983;53.156;17.960;2023-07-16T01:16:34;7.20;;;5.40;;
17725;SDS011;8983;53.156;17.960;2023-07-16T01:19:03;7.85;;;5.68;;
17725;SDS011;8983;53.156;17.960;2023-07-16T01:21:33;7.78;;;4.97;;
17725;SDS011;8983;53.156;17.960;2023-07-16T01:24:13;6.03;;;5.22;;
17725;SDS011;8983;53.156;17.960;2023-07-16T01:27:13;8.18;;;5.90;;
17725;SDS011;8983;53.156;17.960;2023-07-16T01:29:57;9.27;;;5.97;;
17725;SDS011;8983;53.156;17.960;2023-07-16T01:32:29;7.97;;;5.25;;
17725;SDS011;8983;53.156;17.960;2023-07-16T01:34:58;8.20;;;5.18;;
17725;SDS011;8983;53.156;17.960;2023-07-16T01:37:27;7.65;;;5.35;;
17725;SDS011;8983;53.156;17.960;2023-07-16T01:39:55;7.53;;;5.40;;
17725;SDS011;8983;53.156;17.960;2023-07-16T01:42:24;6.75;;;6.15;;
17725;SDS011;8983;53.156;17.960;2023-07-16T01:44:52;6.90;;;5.15;;
17725;SDS011;8983;53.156;17.960;2023-07-16T01:47:23;6.57;;;5.43;;
17725;SDS011;8983;53.156;17.960;2023-07-16T01:49:58;8.63;;;5.85;;
17725;SDS011;8983;53.156;17.960;2023-07-16T01:52:26;6.05;;;5.45;;
17725;SDS011;8983;53.156;17.960;2023-07-16T01:54:54;6.35;;;5.43;;
17725;SDS011;8983;53.156;17.960;2023-07-16T01:57:23;8.52;;;6.03;;
17725;SDS011;8983;53.156;17.960;2023-07-16T01:59:51;8.70;;;5.60;;
17725;SDS011;8983;53.156;17.960;2023-07-16T02:02:19;5.47;;;4.97;;
17725;SDS011;8983;53.156;17.960;2023-07-16T02:04:48;6.90;;;5.85;;
17725;SDS011;8983;53.156;17.960;2023-07-16T02:07:17;7.07;;;5.95;;
17725;SDS011;8983;53.156;17.960;2023-07-16T02:09:45;6.13;;;5.60;;
17725;SDS011;8983;53.156;17.960;2023-07-16T02:12:13;8.48;;;5.68;;
17725;SDS011;8983;53.156;17.960;2023-07-16T02:14:41;6.07;;;5.53;;
17725;SDS011;8983;53.156;17.960;2023-07-16T02:17:09;6.50;;;5.82;;
17725;SDS011;8983;53.156;17.960;2023-07-16T02:19:37;8.13;;;6.57;;
17725;SDS011;8983;53.156;17.960;2023-07-16T02:22:07;6.13;;;5.53;;
17725;SDS011;8983;53.156;17.960;2023-07-16T02:24:35;6.68;;;5.97;;
17725;SDS011;8983;53.156;17.960;2023-07-16T02:27:03;6.15;;;5.47;;
17725;SDS011;8983;53.156;17.960;2023-07-16T02:29:32;6.72;;;6.03;;
17725;SDS011;8983;53.156;17.960;2023-07-16T02:32:01;8.38;;;5.85;;
17725;SDS011;8983;53.156;17.960;2023-07-16T02:34:29;8.15;;;5.85;;
17725;SDS011;8983;53.156;17.960;2023-07-16T02:36:57;6.88;;;5.60;;
17725;SDS011;8983;53.156;17.960;2023-07-16T02:39:26;9.70;;;6.30;;
17725;SDS011;8983;53.156;17.960;2023-07-16T02:41:54;6.68;;;6.00;;
17725;SDS011;8983;53.156;17.960;2023-07-16T02:44:22;6.82;;;6.13;;
17725;SDS011;8983;53.156;17.960;2023-07-16T02:46:50;6.53;;;5.78;;
17725;SDS011;8983;53.156;17.960;2023-07-16T02:49:19;6.22;;;5.63;;
17725;SDS011;8983;53.156;17.960;2023-07-16T02:51:47;6.88;;;5.80;;
17725;SDS011;8983;53.156;17.960;2023-07-16T02:54:15;6.47;;;5.80;;
17725;SDS011;8983;53.156;17.960;2023-07-16T02:56:44;8.75;;;5.90;;
17725;SDS011;8983;53.156;17.960;2023-07-16T02:59:12;8.20;;;6.53;;
17725;SDS011;8983;53.156;17.960;2023-07-16T03:01:40;7.40;;;6.50;;
17725;SDS011;8983;53.156;17.960;2023-07-16T03:04:08;6.85;;;6.00;;
17725;SDS011;8983;53.156;17.960;2023-07-16T03:06:37;8.35;;;7.10;;
17725;SDS011;8983;53.156;17.960;2023-07-16T03:09:05;6.65;;;5.93;;
17725;SDS011;8983;53.156;17.960;2023-07-16T03:11:33;7.60;;;6.32;;
17725;SDS011;8983;53.156;17.960;2023-07-16T03:14:03;6.20;;;5.53;;
17725;SDS011;8983;53.156;17.960;2023-07-16T03:16:31;7.53;;;6.22;;
17725;SDS011;8983;53.156;17.960;2023-07-16T03:18:59;6.95;;;5.80;;
17725;SDS011;8983;53.156;17.960;2023-07-16T03:21:29;6.53;;;5.93;;
17725;SDS011;8983;53.156;17.960;2023-07-16T03:23:57;6.60;;;5.90;;
17725;SDS011;8983;53.156;17.960;2023-07-16T03:26:25;6.50;;;5.90;;
17725;SDS011;8983;53.156;17.960;2023-07-16T03:28:53;7.05;;;5.88;;
17725;SDS011;8983;53.156;17.960;2023-07-16T03:31:23;8.65;;;5.90;;
17725;SDS011;8983;53.156;17.960;2023-07-16T03:33:51;9.45;;;6.00;;
17725;SDS011;8983;53.156;17.960;2023-07-16T03:36:19;8.00;;;5.57;;
17725;SDS011;8983;53.156;17.960;2023-07-16T03:38:47;7.20;;;5.72;;
17725;SDS011;8983;53.156;17.960;2023-07-16T03:41:15;7.63;;;5.93;;
17725;SDS011;8983;53.156;17.960;2023-07-16T03:43:43;7.22;;;6.50;;
17725;SDS011;8983;53.156;17.960;2023-07-16T03:46:13;8.27;;;5.55;;
17725;SDS011;8983;53.156;17.960;2023-07-16T03:48:43;7.15;;;6.25;;
17725;SDS011;8983;53.156;17.960;2023-07-16T03:51:12;8.35;;;5.40;;
17725;SDS011;8983;53.156;17.960;2023-07-16T03:53:40;6.53;;;5.63;;
17725;SDS011;8983;53.156;17.960;2023-07-16T03:56:08;6.07;;;5.35;;
17725;SDS011;8983;53.156;17.960;2023-07-16T03:58:36;7.10;;;5.68;;
17725;SDS011;8983;53.156;17.960;2023-07-16T04:01:04;8.10;;;5.45;;
17725;SDS011;8983;53.156;17.960;2023-07-16T04:03:32;6.78;;;6.03;;
17725;SDS011;8983;53.156;17.960;2023-07-16T04:06:02;6.75;;;5.75;;
17725;SDS011;8983;53.156;17.960;2023-07-16T04:08:31;5.85;;;5.25;;
17725;SDS011;8983;53.156;17.960;2023-07-16T04:10:59;7.25;;;5.25;;
17725;SDS011;8983;53.156;17.960;2023-07-16T04:13:27;6.90;;;5.45;;
17725;SDS011;8983;53.156;17.960;2023-07-16T04:15:56;11.23;;;5.32;;
17725;SDS011;8983;53.156;17.960;2023-07-16T04:18:24;5.35;;;4.57;;
17725;SDS011;8983;53.156;17.960;2023-07-16T04:20:52;5.88;;;5.13;;
17725;SDS011;8983;53.156;17.960;2023-07-16T04:23:22;5.55;;;5.05;;
17725;SDS011;8983;53.156;17.960;2023-07-16T04:25:51;9.18;;;5.18;;
17725;SDS011;8983;53.156;17.960;2023-07-16T04:28:20;8.27;;;5.20;;
17725;SDS011;8983;53.156;17.960;2023-07-16T04:30:49;7.13;;;5.18;;
17725;SDS011;8983;53.156;17.960;2023-07-16T04:33:17;6.30;;;5.18;;
17725;SDS011;8983;53.156;17.960;2023-07-16T04:35:46;9.35;;;4.80;;
17725;SDS011;8983;53.156;17.960;2023-07-16T04:38:14;6.95;;;5.22;;
17725;SDS011;8983;53.156;17.960;2023-07-16T04:40:43;8.50;;;5.55;;
17725;SDS011;8983;53.156;17.960;2023-07-16T04:43:11;7.05;;;5.22;;
17725;SDS011;8983;53.156;17.960;2023-07-16T04:45:40;6.93;;;5.47;;
17725;SDS011;8983;53.156;17.960;2023-07-16T04:48:08;7.45;;;5.32;;
17725;SDS011;8983;53.156;17.960;2023-07-16T04:50:36;9.07;;;5.28;;
17725;SDS011;8983;53.156;17.960;2023-07-16T04:53:04;6.03;;;4.90;;
17725;SDS011;8983;53.156;17.960;2023-07-16T04:55:34;6.93;;;5.30;;
17725;SDS011;8983;53.156;17.960;2023-07-16T04:58:04;8.80;;;5.28;;
17725;SDS011;8983;53.156;17.960;2023-07-16T05:00:33;6.00;;;5.22;;
17725;SDS011;8983;53.156;17.960;2023-07-16T05:03:02;9.85;;;5.63;;
17725;SDS011;8983;53.156;17.960;2023-07-16T05:05:30;7.10;;;5.45;;
17725;SDS011;8983;53.156;17.960;2023-07-16T05:07:58;6.13;;;5.20;;
17725;SDS011;8983;53.156;17.960;2023-07-16T05:10:26;6.70;;;4.95;;
17725;SDS011;8983;53.156;17.960;2023-07-16T05:12:55;7.07;;;5.78;;
17725;SDS011;8983;53.156;17.960;2023-07-16T05:15:24;5.82;;;5.25;;
17725;SDS011;8983;53.156;17.960;2023-07-16T05:17:52;7.88;;;5.28;;
17725;SDS011;8983;53.156;17.960;2023-07-16T05:20:21;7.70;;;5.47;;
17725;SDS011;8983;53.156;17.960;2023-07-16T05:22:50;7.03;;;5.28;;
17725;SDS011;8983;53.156;17.960;2023-07-16T05:25:18;5.47;;;4.90;;
17725;SDS011;8983;53.156;17.960;2023-07-16T05:27:46;6.13;;;4.80;;
17725;SDS011;8983;53.156;17.960;2023-07-16T05:30:15;5.82;;;4.82;;
17725;SDS011;8983;53.156;17.960;2023-07-16T05:32:44;6.65;;;5.28;;
17725;SDS011;8983;53.156;17.960;2023-07-16T05:35:13;5.30;;;4.78;;
17725;SDS011;8983;53.156;17.960;2023-07-16T05:37:41;5.88;;;5.03;;
17725;SDS011;8983;53.156;17.960;2023-07-16T05:40:09;5.95;;;4.75;;
17725;SDS011;8983;53.156;17.960;2023-07-16T05:42:37;7.00;;;5.13;;
17725;SDS011;8983;53.156;17.960;2023-07-16T05:45:05;5.35;;;4.68;;
17725;SDS011;8983;53.156;17.960;2023-07-16T05:47:34;6.00;;;5.05;;
17725;SDS011;8983;53.156;17.960;2023-07-16T05:50:04;5.03;;;4.40;;
17725;SDS011;8983;53.156;17.960;2023-07-16T05:52:33;6.55;;;4.88;;
17725;SDS011;8983;53.156;17.960;2023-07-16T05:55:01;5.53;;;4.53;;
17725;SDS011;8983;53.156;17.960;2023-07-16T05:57:30;6.88;;;4.68;;
17725;SDS011;8983;53.156;17.960;2023-07-16T05:59:58;5.93;;;4.82;;
17725;SDS011;8983;53.156;17.960;2023-07-16T06:02:26;4.70;;;4.20;;
17725;SDS011;8983;53.156;17.960;2023-07-16T06:04:55;6.55;;;4.50;;
17725;SDS011;8983;53.156;17.960;2023-07-16T06:07:24;5.30;;;4.80;;
17725;SDS011;8983;53.156;17.960;2023-07-16T06:09:52;4.75;;;4.35;;
17725;SDS011;8983;53.156;17.960;2023-07-16T06:12:20;4.82;;;4.32;;
17725;SDS011;8983;53.156;17.960;2023-07-16T06:14:48;5.68;;;5.05;;
17725;SDS011;8983;53.156;17.960;2023-07-16T06:17:16;5.95;;;4.55;;
17725;SDS011;8983;53.156;17.960;2023-07-16T06:19:45;4.60;;;4.20;;
17725;SDS011;8983;53.156;17.960;2023-07-16T06:22:14;5.15;;;4.65;;
17725;SDS011;8983;53.156;17.960;2023-07-16T06:24:44;4.55;;;4.15;;
17725;SDS011;8983;53.156;17.960;2023-07-16T06:27:12;4.93;;;4.43;;
17725;SDS011;8983;53.156;17.960;2023-07-16T06:29:40;4.95;;;4.18;;
17725;SDS011;8983;53.156;17.960;2023-07-16T06:32:09;5.22;;;4.35;;
17725;SDS011;8983;53.156;17.960;2023-07-16T06:34:37;5.40;;;4.15;;
17725;SDS011;8983;53.156;17.960;2023-07-16T06:37:06;5.50;;;4.38;;
17725;SDS011;8983;53.156;17.960;2023-07-16T06:39:34;4.82;;;4.10;;
17725;SDS011;8983;53.156;17.960;2023-07-16T06:42:04;4.45;;;4.05;;
17725;SDS011;8983;53.156;17.960;2023-07-16T06:44:32;6.90;;;4.93;;
17725;SDS011;8983;53.156;17.960;2023-07-16T06:47:00;4.72;;;3.70;;
17725;SDS011;8983;53.156;17.960;2023-07-16T06:49:29;3.65;;;3.33;;
17725;SDS011;8983;53.156;17.960;2023-07-16T06:51:59;4.28;;;3.60;;
17725;SDS011;8983;53.156;17.960;2023-07-16T06:54:28;4.18;;;2.92;;
17725;SDS011;8983;53.156;17.960;2023-07-16T06:56:56;5.60;;;3.42;;
17725;SDS011;8983;53.156;17.960;2023-07-16T06:59:26;4.15;;;3.30;;
17725;SDS011;8983;53.156;17.960;2023-07-16T07:01:55;4.65;;;2.88;;
17725;SDS011;8983;53.156;17.960;2023-07-16T07:04:24;4.25;;;2.72;;
17725;SDS011;8983;53.156;17.960;2023-07-16T07:06:52;4.20;;;3.15;;
17725;SDS011;8983;53.156;17.960;2023-07-16T07:09:20;3.55;;;2.97;;
17725;SDS011;8983;53.156;17.960;2023-07-16T07:11:48;4.35;;;2.88;;
17725;SDS011;8983;53.156;17.960;2023-07-16T07:14:16;3.58;;;3.10;;
17725;SDS011;8983;53.156;17.960;2023-07-16T07:16:46;2.83;;;2.63;;
17725;SDS011;8983;53.156;17.960;2023-07-16T07:19:14;4.85;;;2.65;;
17725;SDS011;8983;53.156;17.960;2023-07-16T07:21:42;3.55;;;2.80;;
17725;SDS011;8983;53.156;17.960;2023-07-16T07:24:10;4.40;;;2.75;;
17725;SDS011;8983;53.156;17.960;2023-07-16T07:26:39;3.63;;;2.90;;
17725;SDS011;8983;53.156;17.960;2023-07-16T07:29:07;2.95;;;2.75;;
17725;SDS011;8983;53.156;17.960;2023-07-16T07:31:35;4.13;;;2.50;;
17725;SDS011;8983;53.156;17.960;2023-07-16T07:34:05;3.28;;;2.95;;
17725;SDS011;8983;53.156;17.960;2023-07-16T07:36:33;3.05;;;2.72;;
17725;SDS011;8983;53.156;17.960;2023-07-16T07:39:02;3.88;;;2.92;;
17725;SDS011;8983;53.156;17.960;2023-07-16T07:41:30;2.78;;;2.30;;
17725;SDS011;8983;53.156;17.960;2023-07-16T07:43:58;3.92;;;2.45;;
17725;SDS011;8983;53.156;17.960;2023-07-16T07:46:26;2.78;;;2.42;;
17725;SDS011;8983;53.156;17.960;2023-07-16T07:48:54;3.25;;;2.95;;
17725;SDS011;8983;53.156;17.960;2023-07-16T07:51:24;2.95;;;2.65;;
17725;SDS011;8983;53.156;17.960;2023-07-16T07:53:52;2.78;;;2.55;;
17725;SDS011;8983;53.156;17.960;2023-07-16T07:56:20;2.60;;;2.40;;
17725;SDS011;8983;53.156;17.960;2023-07-16T07:58:48;3.10;;;2.20;;
17725;SDS011;8983;53.156;17.960;2023-07-16T08:01:16;3.47;;;2.40;;
17725;SDS011;8983;53.156;17.960;2023-07-16T08:03:44;2.10;;;2.00;;
17725;SDS011;8983;53.156;17.960;2023-07-16T08:06:12;2.45;;;1.90;;
17725;SDS011;8983;53.156;17.960;2023-07-16T08:08:42;1.98;;;1.80;;
17725;SDS011;8983;53.156;17.960;2023-07-16T08:11:10;2.85;;;2.13;;
17725;SDS011;8983;53.156;17.960;2023-07-16T08:13:38;1.95;;;1.75;;
17725;SDS011;8983;53.156;17.960;2023-07-16T08:16:06;3.25;;;1.75;;
17725;SDS011;8983;53.156;17.960;2023-07-16T08:18:35;2.08;;;1.80;;
17725;SDS011;8983;53.156;17.960;2023-07-16T08:21:04;1.90;;;1.80;;
17725;SDS011;8983;53.156;17.960;2023-07-16T08:23:32;1.70;;;1.60;;
17725;SDS011;8983;53.156;17.960;2023-07-16T08:26:01;2.00;;;1.80;;
17725;SDS011;8983;53.156;17.960;2023-07-16T08:28:29;1.95;;;1.77;;
17725;SDS011;8983;53.156;17.960;2023-07-16T08:30:57;1.90;;;1.80;;
17725;SDS011;8983;53.156;17.960;2023-07-16T08:33:26;2.67;;;1.98;;
17725;SDS011;8983;53.156;17.960;2023-07-16T08:35:54;2.28;;;2.00;;
17725;SDS011;8983;53.156;17.960;2023-07-16T08:38:22;2.83;;;1.90;;
17725;SDS011;8983;53.156;17.960;2023-07-16T08:40:50;2.20;;;1.95;;
17725;SDS011;8983;53.156;17.960;2023-07-16T08:43:19;2.40;;;2.00;;
17725;SDS011;8983;53.156;17.960;2023-07-16T08:45:49;2.67;;;2.00;;
17725;SDS011;8983;53.156;17.960;2023-07-16T08:48:17;2.65;;;1.90;;
17725;SDS011;8983;53.156;17.960;2023-07-16T08:50:45;2.40;;;1.95;;
17725;SDS011;8983;53.156;17.960;2023-07-16T08:53:15;1.95;;;1.58;;
17725;SDS011;8983;53.156;17.960;2023-07-16T08:55:43;1.83;;;1.73;;
17725;SDS011;8983;53.156;17.960;2023-07-16T08:58:17;1.92;;;1.73;;
17725;SDS011;8983;53.156;17.960;2023-07-16T09:00:48;1.73;;;1.60;;
17725;SDS011;8983;53.156;17.960;2023-07-16T09:03:17;1.80;;;1.70;;
17725;SDS011;8983;53.156;17.960;2023-07-16T09:05:45;2.25;;;1.48;;
17725;SDS011;8983;53.156;17.960;2023-07-16T09:08:14;2.40;;;1.90;;
17725;SDS011;8983;53.156;17.960;2023-07-16T09:10:43;2.13;;;1.95;;
17725;SDS011;8983;53.156;17.960;2023-07-16T09:13:11;2.35;;;2.15;;
17725;SDS011;8983;53.156;17.960;2023-07-16T09:15:39;2.20;;;2.00;;
17725;SDS011;8983;53.156;17.960;2023-07-16T09:18:12;2.92;;;2.15;;
17725;SDS011;8983;53.156;17.960;2023-07-16T09:20:47;3.05;;;2.33;;
17725;SDS011;8983;53.156;17.960;2023-07-16T09:23:16;2.10;;;1.90;;
17725;SDS011;8983;53.156;17.960;2023-07-16T09:25:45;1.90;;;1.80;;
17725;SDS011;8983;53.156;17.960;2023-07-16T09:28:13;1.95;;;1.80;;
17725;SDS011;8983;53.156;17.960;2023-07-16T09:30:41;1.85;;;1.70;;
17725;SDS011;8983;53.156;17.960;2023-07-16T09:33:10;2.22;;;2.03;;
17725;SDS011;8983;53.156;17.960;2023-07-16T09:35:40;3.05;;;1.90;;
17725;SDS011;8983;53.156;17.960;2023-07-16T09:38:09;2.35;;;1.98;;
17725;SDS011;8983;53.156;17.960;2023-07-16T09:40:37;4.45;;;2.08;;
17725;SDS011;8983;53.156;17.960;2023-07-16T09:43:07;1.73;;;1.63;;
17725;SDS011;8983;53.156;17.960;2023-07-16T09:45:35;2.03;;;1.70;;
17725;SDS011;8983;53.156;17.960;2023-07-16T09:48:04;2.00;;;1.80;;
17725;SDS011;8983;53.156;17.960;2023-07-16T09:50:33;2.20;;;1.98;;
17725;SDS011;8983;53.156;17.960;2023-07-16T09:53:04;2.83;;;1.65;;
17725;SDS011;8983;53.156;17.960;2023-07-16T09:55:34;2.10;;;1.83;;
17725;SDS011;8983;53.156;17.960;2023-07-16T09:58:09;2.47;;;2.00;;
17725;SDS011;8983;53.156;17.960;2023-07-16T10:00:39;2.20;;;1.98;;
17725;SDS011;8983;53.156;17.960;2023-07-16T10:03:09;2.40;;;2.20;;
17725;SDS011;8983;53.156;17.960;2023-07-16T10:05:37;2.42;;;2.25;;
17725;SDS011;8983;53.156;17.960;2023-07-16T10:08:15;3.03;;;2.28;;
17725;SDS011;8983;53.156;17.960;2023-07-16T10:10:44;2.67;;;2.47;;
17725;SDS011;8983;53.156;17.960;2023-07-16T10:13:15;4.00;;;2.40;;
17725;SDS011;8983;53.156;17.960;2023-07-16T10:15:53;3.75;;;2.17;;
17725;SDS011;8983;53.156;17.960;2023-07-16T10:18:23;1.90;;;1.70;;
17725;SDS011;8983;53.156;17.960;2023-07-16T10:20:53;3.92;;;2.25;;
17725;SDS011;8983;53.156;17.960;2023-07-16T10:23:36;2.95;;;2.45;;
17725;SDS011;8983;53.156;17.960;2023-07-16T10:26:06;2.60;;;2.40;;
17725;SDS011;8983;53.156;17.960;2023-07-16T10:28:35;4.28;;;2.25;;
17725;SDS011;8983;53.156;17.960;2023-07-16T10:31:04;2.63;;;2.33;;
17725;SDS011;8983;53.156;17.960;2023-07-16T10:33:34;3.10;;;2.33;;
17725;SDS011;8983;53.156;17.960;2023-07-16T10:36:04;4.00;;;2.40;;
17725;SDS011;8983;53.156;17.960;2023-07-16T10:38:41;2.97;;;2.28;;
17725;SDS011;8983;53.156;17.960;2023-07-16T10:41:09;3.35;;;2.38;;
17725;SDS011;8983;53.156;17.960;2023-07-16T10:43:37;2.90;;;2.60;;
17725;SDS011;8983;53.156;17.960;2023-07-16T10:46:05;3.00;;;2.58;;
17725;SDS011;8983;53.156;17.960;2023-07-16T10:48:33;5.25;;;2.60;;
17725;SDS011;8983;53.156;17.960;2023-07-16T10:51:01;4.28;;;3.00;;
17725;SDS011;8983;53.156;17.960;2023-07-16T10:53:29;2.50;;;2.28;;
17725;SDS011;8983;53.156;17.960;2023-07-16T10:55:59;2.95;;;2.60;;
17725;SDS011;8983;53.156;17.960;2023-07-16T10:58:27;4.70;;;2.70;;
17725;SDS011;8983;53.156;17.960;2023-07-16T11:00:55;3.20;;;2.90;;
17725;SDS011;8983;53.156;17.960;2023-07-16T11:03:23;2.90;;;2.55;;
17725;SDS011;8983;53.156;17.960;2023-07-16T11:05:52;4.13;;;2.60;;
17725;SDS011;8983;53.156;17.960;2023-07-16T11:08:23;3.03;;;2.70;;
17725;SDS011;8983;53.156;17.960;2023-07-16T11:10:54;2.83;;;2.50;;
17725;SDS011;8983;53.156;17.960;2023-07-16T11:13:27;3.60;;;2.88;;
17725;SDS011;8983;53.156;17.960;2023-07-16T11:15:56;2.90;;;2.60;;
17725;SDS011;8983;53.156;17.960;2023-07-16T11:18:24;3.60;;;2.83;;
17725;SDS011;8983;53.156;17.960;2023-07-16T11:20:54;2.90;;;2.58;;
17725;SDS011;8983;53.156;17.960;2023-07-16T11:23:22;3.15;;;2.72;;
17725;SDS011;8983;53.156;17.960;2023-07-16T11:25:51;2.50;;;2.22;;
17725;SDS011;8983;53.156;17.960;2023-07-16T11:28:19;3.25;;;2.90;;
17725;SDS011;8983;53.156;17.960;2023-07-16T11:30:50;3.50;;;2.60;;
17725;SDS011;8983;53.156;17.960;2023-07-16T11:33:18;2.58;;;2.38;;
17725;SDS011;8983;53.156;17.960;2023-07-16T11:35:46;6.03;;;2.38;;
17725;SDS011;8983;53.156;17.960;2023-07-16T11:38:16;2.30;;;2.10;;
17725;SDS011;8983;53.156;17.960;2023-07-16T11:40:45;2.40;;;2.20;;
17725;SDS011;8983;53.156;17.960;2023-07-16T11:43:14;3.50;;;2.42;;
17725;SDS011;8983;53.156;17.960;2023-07-16T11:45:47;2.60;;;2.40;;
17725;SDS011;8983;53.156;17.960;2023-07-16T11:48:17;5.22;;;2.45;;
17725;SDS011;8983;53.156;17.960;2023-07-16T11:50:45;3.53;;;2.10;;
17725;SDS011;8983;53.156;17.960;2023-07-16T11:53:13;2.30;;;2.10;;
17725;SDS011;8983;53.156;17.960;2023-07-16T11:55:45;3.60;;;2.33;;
17725;SDS011;8983;53.156;17.960;2023-07-16T11:58:13;2.35;;;2.15;;
17725;SDS011;8983;53.156;17.960;2023-07-16T12:00:41;2.40;;;2.20;;
17725;SDS011;8983;53.156;17.960;2023-07-16T12:03:09;2.17;;;1.98;;
17725;SDS011;8983;53.156;17.960;2023-07-16T12:05:39;2.20;;;2.00;;
17725;SDS011;8983;53.156;17.960;2023-07-16T12:08:18;2.47;;;2.28;;
17725;SDS011;8983;53.156;17.960;2023-07-16T12:10:46;2.67;;;1.92;;
17725;SDS011;8983;53.156;17.960;2023-07-16T12:13:14;2.38;;;2.15;;
17725;SDS011;8983;53.156;17.960;2023-07-16T12:15:42;2.33;;;1.88;;
17725;SDS011;8983;53.156;17.960;2023-07-16T12:18:11;2.20;;;2.00;;
17725;SDS011;8983;53.156;17.960;2023-07-16T12:20:40;2.47;;;2.28;;
17725;SDS011;8983;53.156;17.960;2023-07-16T12:23:09;2.20;;;2.00;;
17725;SDS011;8983;53.156;17.960;2023-07-16T12:25:37;2.63;;;2.05;;
17725;SDS011;8983;53.156;17.960;2023-07-16T12:28:06;2.55;;;2.10;;
17725;SDS011;8983;53.156;17.960;2023-07-16T12:30:34;2.10;;;2.00;;
17725;SDS011;8983;53.156;17.960;2023-07-16T12:33:02;3.00;;;2.17;;
17725;SDS011;8983;53.156;17.960;2023-07-16T12:35:31;2.97;;;1.90;;
17725;SDS011;8983;53.156;17.960;2023-07-16T12:38:01;3.15;;;2.15;;
17725;SDS011;8983;53.156;17.960;2023-07-16T12:40:30;3.53;;;2.50;;
17725;SDS011;8983;53.156;17.960;2023-07-16T12:42:58;1.83;;;1.73;;
17725;SDS011;8983;53.156;17.960;2023-07-16T12:45:26;3.22;;;2.15;;
17725;SDS011;8983;53.156;17.960;2023-07-16T12:47:54;2.47;;;1.88;;
17725;SDS011;8983;53.156;17.960;2023-07-16T12:50:22;2.15;;;1.58;;
17725;SDS011;8983;53.156;17.960;2023-07-16T12:52:51;1.83;;;1.73;;
17725;SDS011;8983;53.156;17.960;2023-07-16T12:55:21;1.80;;;1.70;;
17725;SDS011;8983;53.156;17.960;2023-07-16T12:57:49;2.40;;;1.65;;
17725;SDS011;8983;53.156;17.960;2023-07-16T13:00:18;2.50;;;1.80;;
17725;SDS011;8983;53.156;17.960;2023-07-16T13:02:46;2.33;;;2.08;;
17725;SDS011;8983;53.156;17.960;2023-07-16T13:05:14;1.73;;;1.63;;
17725;SDS011;8983;53.156;17.960;2023-07-16T13:07:42;1.70;;;1.60;;
17725;SDS011;8983;53.156;17.960;2023-07-16T13:10:10;2.53;;;1.80;;
17725;SDS011;8983;53.156;17.960;2023-07-16T13:12:50;2.30;;;1.80;;
17725;SDS011;8983;53.156;17.960;2023-07-16T13:15:18;1.92;;;1.83;;
17725;SDS011;8983;53.156;17.960;2023-07-16T13:17:47;2.33;;;1.92;;
17725;SDS011;8983;53.156;17.960;2023-07-16T13:20:15;1.48;;;1.38;;
17725;SDS011;8983;53.156;17.960;2023-07-16T13:22:44;2.03;;;1.92;;
17725;SDS011;8983;53.156;17.960;2023-07-16T13:25:12;2.80;;;1.60;;
17725;SDS011;8983;53.156;17.960;2023-07-16T13:27:41;1.85;;;1.67;;
17725;SDS011;8983;53.156;17.960;2023-07-16T13:30:10;2.53;;;1.77;;
17725;SDS011;8983;53.156;17.960;2023-07-16T13:32:40;1.90;;;1.80;;
17725;SDS011;8983;53.156;17.960;2023-07-16T13:35:08;2.28;;;1.88;;
17725;SDS011;8983;53.156;17.960;2023-07-16T13:37:36;2.03;;;1.80;;
17725;SDS011;8983;53.156;17.960;2023-07-16T13:40:05;2.00;;;1.60;;
17725;SDS011;8983;53.156;17.960;2023-07-16T13:42:34;1.65;;;1.55;;
17725;SDS011;8983;53.156;17.960;2023-07-16T13:45:03;1.90;;;1.80;;
17725;SDS011;8983;53.156;17.960;2023-07-16T13:47:33;1.92;;;1.80;;
17725;SDS011;8983;53.156;17.960;2023-07-16T13:50:01;2.00;;;1.80;;
17725;SDS011;8983;53.156;17.960;2023-07-16T13:52:29;1.65;;;1.55;;
17725;SDS011;8983;53.156;17.960;2023-07-16T13:54:59;1.63;;;1.50;;
17725;SDS011;8983;53.156;17.960;2023-07-16T13:57:27;2.00;;;1.80;;
17725;SDS011;8983;53.156;17.960;2023-07-16T13:59:55;1.90;;;1.80;;
17725;SDS011;8983;53.156;17.960;2023-07-16T14:02:23;1.90;;;1.70;;
17725;SDS011;8983;53.156;17.960;2023-07-16T14:04:53;3.28;;;2.05;;
17725;SDS011;8983;53.156;17.960;2023-07-16T14:07:21;2.00;;;1.80;;
17725;SDS011;8983;53.156;17.960;2023-07-16T14:09:49;2.03;;;1.67;;
17725;SDS011;8983;53.156;17.960;2023-07-16T14:12:17;3.08;;;2.00;;
17725;SDS011;8983;53.156;17.960;2023-07-16T14:14:45;2.40;;;2.17;;
17725;SDS011;8983;53.156;17.960;2023-07-16T14:17:13;2.78;;;2.15;;
17725;SDS011;8983;53.156;17.960;2023-07-16T14:19:41;4.82;;;2.05;;
17725;SDS011;8983;53.156;17.960;2023-07-16T14:22:11;2.35;;;2.15;;
17725;SDS011;8983;53.156;17.960;2023-07-16T14:24:40;2.08;;;1.88;;
17725;SDS011;8983;53.156;17.960;2023-07-16T14:27:09;2.08;;;1.88;;
17725;SDS011;8983;53.156;17.960;2023-07-16T14:29:39;1.95;;;1.63;;
17725;SDS011;8983;53.156;17.960;2023-07-16T14:32:27;1.90;;;1.80;;
17725;SDS011;8983;53.156;17.960;2023-07-16T14:34:55;2.30;;;2.10;;
17725;SDS011;8983;53.156;17.960;2023-07-16T14:37:25;2.47;;;2.25;;
17725;SDS011;8983;53.156;17.960;2023-07-16T14:39:53;3.33;;;2.03;;
17725;SDS011;8983;53.156;17.960;2023-07-16T14:42:21;2.20;;;1.98;;
17725;SDS011;8983;53.156;17.960;2023-07-16T14:44:49;3.92;;;1.90;;
17725;SDS011;8983;53.156;17.960;2023-07-16T14:47:17;1.90;;;1.80;;
17725;SDS011;8983;53.156;17.960;2023-07-16T14:49:45;2.63;;;1.85;;
17725;SDS011;8983;53.156;17.960;2023-07-16T14:52:13;1.83;;;1.73;;
17725;SDS011;8983;53.156;17.960;2023-07-16T14:54:42;2.47;;;2.03;;
17725;SDS011;8983;53.156;17.960;2023-07-16T14:57:11;2.78;;;1.70;;
17725;SDS011;8983;53.156;17.960;2023-07-16T14:59:39;2.55;;;2.35;;